Terminal Aerodrome Forecast
Issued by NWS

Home | Current Version | Previous Version | Text Only | Print | Product List | Glossary On
Versions: 1 2 3 4 5 6 7 8 9 10 11 12 13 14 15 16 17 18 19 20 21
000
FTUS41 KBTV 230533
TAFMPV
TAF
KMPV 230533Z 2306/2406 VRB05KT P6SM BKN035
      TEMPO 2307/2311 2SM BR
     FM231100 22004KT P6SM SCT130
     FM231600 28004KT P6SM SKC
     FM240500 29005KT P6SM FEW200=

USA.gov is the U.S. government's official web portal to all federal, state and local government web resources and services.